Butts AAF (Fort Carson) Air Field
KFCS : now visible

Airfield :











YOU CAN JOIN US ON...

 
LOGIN :

Register | Disclaimer

   EN    FR    IT 

 









Legend :    VFR   Marginal VFR   IFR   Intensive IFR   Very Intensive IFR
Visi :
Ceiling :
>= 8 km
>= 3000ft
5 to 8 km
1000 to 3000 ft
1500m to 5 km
500 to 1000 ft
800 to 1500m
200 to 500 ft
< 800m
< 200 ft
Symbols :   Thunderstorms  Fog  Heavy snow  Heavy precipitations  Wind > 20 kt






- Airport Elevation : 5838 ft


KFCS - Butts AAF (Fort Carson) Air Field

CURRENT METAR :
  • 030758Z AUTO 20006KT 10SM BKN150 16/10 A3014 RMK AO2 SLP146 T01590100 $

EXPIRED METARs :
  • 030658Z AUTO 00000KT 10SM CLR 16/10 A3015 RMK AO2 SLP150 T01580103 403000125 $
  • 030558Z AUTO 00000KT 10SM CLR 17/10 A3015 RMK AO2 SLP150 60000 T01700101 10206 20159 52007 $

TAF TAF KFCS
Valid from the 03 at 05:00 until the 04 at 11:00 UTC


030500Z 0305/0411 22005KT 9999 SCT130 QNH3014INS
BECMG 0308/0309 VRB06KT 6000 BR BKN010 QNH3019INS
BECMG 0314/0315 16012KT 9999 NSW SCT080 QNH3016INS
BECMG 0319/0320 15010G15KT 8000 -SHRA BKN100 QNH3012INS
TEMPO 0321/0402 VRB15G25KT 6000 TSRA BKN050CB
BECMG 0400/0402 34009KT 9999 NSW SCT110 QNH3006INS TX31/0321Z TN16/0312Z
KZDV FIR / North America



MET'MAP, your aeronautical weather chart ! - Copyright ORBIFLY December 2007 - Disclaimer

ORBIFLY MET'MAP TEAM :

Programming & Development : Alexandra Zaïnal
Original concept : Baudouin d'Aumeries
Technical & hardware support : Manuel Goepfert
Assistance : Marc-Olivier Méhu




SOURCES & CREDITS :

   NOAA       Earth
Advisory